アリススプリングス の空港の天気 - METARとTAF

アリス・スプリングス空港 ( YBAS / ASP ) - オーストラリア ノーザンテリトリーアリススプリングス
飛行場実況気象(Metar)
観測時間08/18 20:00 ACST (08/18 10:30 UTC)
風向・風速南東 4m/s
視程10km以上
天気現象
なし
気温17℃
湿度29%
気圧1024hPa
METARYBAS 181030Z AUTO 13007KT 9999 // NCD 17/M01 Q1024 RF00.0/000.0
過去の天気等 Google飛行場航空写真 Wunderground天気予報

過去48時間のMETAR

飛行場予報(TAF)
発表時間: 8/18 14:32 ACST (8/18 05:02 UTC)
予報対象時間: 18日15時 ACST ~ 19日15時 ACST
風向・風速東 7m/s
視程10km以上
なし
18日19時 ACST から
風向・風速東南東 5m/s
視程10km以上
なし
19日9時 ACST から
風向・風速東 7m/s
視程10km以上
なし
TAF YBAS 180502Z 1806/1906 10013KT CAVOK
FM181000 11009KT CAVOK
FM190000 09014KT CAVOK